sensor_id;sensor_type;location;lat;lon;timestamp;P1;durP1;ratioP1;P2;durP2;ratioP2
74908;SDS011;63468;52.058;4.824;2023-02-11T00:00:45;26.42;;;7.55;;
74908;SDS011;63468;52.058;4.824;2023-02-11T00:03:11;26.92;;;7.72;;
74908;SDS011;63468;52.058;4.824;2023-02-11T00:05:36;16.40;;;6.60;;
74908;SDS011;63468;52.058;4.824;2023-02-11T00:08:01;23.55;;;7.13;;
74908;SDS011;63468;52.058;4.824;2023-02-11T00:10:27;20.05;;;6.40;;
74908;SDS011;63468;52.058;4.824;2023-02-11T00:12:52;23.80;;;6.35;;
74908;SDS011;63468;52.058;4.824;2023-02-11T00:15:18;17.00;;;5.70;;
74908;SDS011;63468;52.058;4.824;2023-02-11T00:17:45;22.00;;;6.05;;
74908;SDS011;63468;52.058;4.824;2023-02-11T00:20:10;17.25;;;5.82;;
74908;SDS011;63468;52.058;4.824;2023-02-11T00:22:35;28.02;;;7.18;;
74908;SDS011;63468;52.058;4.824;2023-02-11T00:25:00;23.45;;;6.68;;
74908;SDS011;63468;52.058;4.824;2023-02-11T00:27:26;25.30;;;6.03;;
74908;SDS011;63468;52.058;4.824;2023-02-11T00:29:51;15.88;;;5.53;;
74908;SDS011;63468;52.058;4.824;2023-02-11T00:32:16;24.20;;;6.82;;
74908;SDS011;63468;52.058;4.824;2023-02-11T00:34:42;21.98;;;6.75;;
74908;SDS011;63468;52.058;4.824;2023-02-11T00:37:07;22.35;;;6.25;;
74908;SDS011;63468;52.058;4.824;2023-02-11T00:39:32;18.80;;;6.13;;
74908;SDS011;63468;52.058;4.824;2023-02-11T00:41:58;28.48;;;8.23;;
74908;SDS011;63468;52.058;4.824;2023-02-11T00:44:23;18.10;;;6.57;;
74908;SDS011;63468;52.058;4.824;2023-02-11T00:46:49;27.13;;;6.05;;
74908;SDS011;63468;52.058;4.824;2023-02-11T00:49:14;19.00;;;6.53;;
74908;SDS011;63468;52.058;4.824;2023-02-11T00:51:39;18.23;;;6.25;;
74908;SDS011;63468;52.058;4.824;2023-02-11T00:54:05;25.20;;;5.47;;
74908;SDS011;63468;52.058;4.824;2023-02-11T00:56:30;27.52;;;6.97;;
74908;SDS011;63468;52.058;4.824;2023-02-11T00:58:56;26.23;;;6.88;;
74908;SDS011;63468;52.058;4.824;2023-02-11T01:01:21;29.52;;;6.72;;
74908;SDS011;63468;52.058;4.824;2023-02-11T01:03:47;18.92;;;5.50;;
74908;SDS011;63468;52.058;4.824;2023-02-11T01:06:12;25.65;;;7.03;;
74908;SDS011;63468;52.058;4.824;2023-02-11T01:08:37;13.32;;;5.30;;
74908;SDS011;63468;52.058;4.824;2023-02-11T01:11:04;20.00;;;6.53;;
74908;SDS011;63468;52.058;4.824;2023-02-11T01:13:32;24.95;;;6.88;;
74908;SDS011;63468;52.058;4.824;2023-02-11T01:15:58;20.80;;;7.57;;
74908;SDS011;63468;52.058;4.824;2023-02-11T01:18:24;18.15;;;6.85;;
74908;SDS011;63468;52.058;4.824;2023-02-11T01:20:50;19.20;;;6.05;;
74908;SDS011;63468;52.058;4.824;2023-02-11T01:23:16;22.27;;;6.22;;
74908;SDS011;63468;52.058;4.824;2023-02-11T01:25:41;17.55;;;6.18;;
74908;SDS011;63468;52.058;4.824;2023-02-11T01:28:10;18.75;;;6.68;;
74908;SDS011;63468;52.058;4.824;2023-02-11T01:30:40;18.92;;;7.10;;
74908;SDS011;63468;52.058;4.824;2023-02-11T01:33:05;20.40;;;7.10;;
74908;SDS011;63468;52.058;4.824;2023-02-11T01:35:30;25.40;;;7.22;;
74908;SDS011;63468;52.058;4.824;2023-02-11T01:37:56;25.50;;;6.50;;
74908;SDS011;63468;52.058;4.824;2023-02-11T01:40:21;24.52;;;7.57;;
74908;SDS011;63468;52.058;4.824;2023-02-11T01:42:46;21.23;;;6.65;;
74908;SDS011;63468;52.058;4.824;2023-02-11T01:48:08;22.80;;;6.78;;
74908;SDS011;63468;52.058;4.824;2023-02-11T01:50:35;19.42;;;7.20;;
74908;SDS011;63468;52.058;4.824;2023-02-11T01:53:01;14.93;;;5.65;;
74908;SDS011;63468;52.058;4.824;2023-02-11T01:55:47;17.33;;;6.45;;
74908;SDS011;63468;52.058;4.824;2023-02-11T01:58:31;15.50;;;6.22;;
74908;SDS011;63468;52.058;4.824;2023-02-11T02:00:57;21.33;;;7.32;;
74908;SDS011;63468;52.058;4.824;2023-02-11T02:03:22;26.58;;;7.15;;
74908;SDS011;63468;52.058;4.824;2023-02-11T02:05:56;21.77;;;5.72;;
74908;SDS011;63468;52.058;4.824;2023-02-11T02:08:41;21.15;;;5.85;;
74908;SDS011;63468;52.058;4.824;2023-02-11T02:11:08;22.10;;;6.97;;
74908;SDS011;63468;52.058;4.824;2023-02-11T02:13:34;19.95;;;6.80;;
74908;SDS011;63468;52.058;4.824;2023-02-11T02:16:01;19.80;;;7.18;;
74908;SDS011;63468;52.058;4.824;2023-02-11T02:41:21;21.90;;;6.60;;
74908;SDS011;63468;52.058;4.824;2023-02-11T02:43:48;20.75;;;7.43;;
74908;SDS011;63468;52.058;4.824;2023-02-11T02:46:21;20.42;;;7.05;;
74908;SDS011;63468;52.058;4.824;2023-02-11T02:48:48;22.42;;;6.75;;
74908;SDS011;63468;52.058;4.824;2023-02-11T02:54:18;19.63;;;7.43;;
74908;SDS011;63468;52.058;4.824;2023-02-11T03:02:51;27.13;;;7.32;;
74908;SDS011;63468;52.058;4.824;2023-02-11T03:05:17;18.98;;;7.55;;
74908;SDS011;63468;52.058;4.824;2023-02-11T03:08:10;15.13;;;6.93;;
74908;SDS011;63468;52.058;4.824;2023-02-11T03:10:44;23.55;;;7.63;;
74908;SDS011;63468;52.058;4.824;2023-02-11T03:13:11;19.65;;;7.53;;
74908;SDS011;63468;52.058;4.824;2023-02-11T03:15:42;20.92;;;7.70;;
74908;SDS011;63468;52.058;4.824;2023-02-11T03:18:08;27.75;;;9.10;;
74908;SDS011;63468;52.058;4.824;2023-02-11T03:20:36;22.92;;;6.85;;
74908;SDS011;63468;52.058;4.824;2023-02-11T03:23:06;21.55;;;7.93;;
74908;SDS011;63468;52.058;4.824;2023-02-11T03:25:36;21.20;;;8.90;;
74908;SDS011;63468;52.058;4.824;2023-02-11T03:28:15;24.70;;;8.15;;
74908;SDS011;63468;52.058;4.824;2023-02-11T03:31:01;25.27;;;7.50;;
74908;SDS011;63468;52.058;4.824;2023-02-11T03:33:50;24.20;;;7.90;;
74908;SDS011;63468;52.058;4.824;2023-02-11T03:36:23;22.33;;;7.10;;
74908;SDS011;63468;52.058;4.824;2023-02-11T03:38:52;24.40;;;7.32;;
74908;SDS011;63468;52.058;4.824;2023-02-11T03:41:21;18.23;;;7.50;;
74908;SDS011;63468;52.058;4.824;2023-02-11T03:43:49;24.00;;;8.60;;
74908;SDS011;63468;52.058;4.824;2023-02-11T03:46:18;20.38;;;7.70;;
74908;SDS011;63468;52.058;4.824;2023-02-11T03:48:47;25.20;;;8.48;;
74908;SDS011;63468;52.058;4.824;2023-02-11T03:51:14;31.35;;;9.82;;
74908;SDS011;63468;52.058;4.824;2023-02-11T03:53:40;28.40;;;8.55;;
74908;SDS011;63468;52.058;4.824;2023-02-11T03:56:08;29.65;;;9.07;;
74908;SDS011;63468;52.058;4.824;2023-02-11T03:58:35;27.23;;;8.88;;
74908;SDS011;63468;52.058;4.824;2023-02-11T04:01:01;35.97;;;9.85;;
74908;SDS011;63468;52.058;4.824;2023-02-11T04:03:26;28.45;;;9.18;;
74908;SDS011;63468;52.058;4.824;2023-02-11T04:05:52;28.48;;;8.55;;
74908;SDS011;63468;52.058;4.824;2023-02-11T04:08:18;23.85;;;8.85;;
74908;SDS011;63468;52.058;4.824;2023-02-11T04:10:43;33.03;;;10.05;;
74908;SDS011;63468;52.058;4.824;2023-02-11T04:13:08;36.83;;;10.88;;
74908;SDS011;63468;52.058;4.824;2023-02-11T04:15:34;38.38;;;9.32;;
74908;SDS011;63468;52.058;4.824;2023-02-11T04:17:59;31.35;;;10.27;;
74908;SDS011;63468;52.058;4.824;2023-02-11T04:20:24;25.50;;;10.18;;
74908;SDS011;63468;52.058;4.824;2023-02-11T04:22:50;28.27;;;10.35;;
74908;SDS011;63468;52.058;4.824;2023-02-11T04:25:15;35.20;;;10.65;;
74908;SDS011;63468;52.058;4.824;2023-02-11T04:27:40;31.23;;;9.95;;
74908;SDS011;63468;52.058;4.824;2023-02-11T04:30:06;33.17;;;11.35;;
74908;SDS011;63468;52.058;4.824;2023-02-11T04:32:32;28.10;;;10.13;;
74908;SDS011;63468;52.058;4.824;2023-02-11T04:34:57;31.63;;;10.85;;
74908;SDS011;63468;52.058;4.824;2023-02-11T04:37:22;37.00;;;10.88;;
74908;SDS011;63468;52.058;4.824;2023-02-11T04:39:48;28.95;;;11.45;;
74908;SDS011;63468;52.058;4.824;2023-02-11T04:42:13;36.58;;;10.57;;
74908;SDS011;63468;52.058;4.824;2023-02-11T04:44:38;25.92;;;10.10;;
74908;SDS011;63468;52.058;4.824;2023-02-11T04:47:04;31.90;;;10.52;;
74908;SDS011;63468;52.058;4.824;2023-02-11T04:49:29;35.83;;;11.30;;
74908;SDS011;63468;52.058;4.824;2023-02-11T04:51:54;34.63;;;11.52;;
74908;SDS011;63468;52.058;4.824;2023-02-11T04:54:20;34.15;;;11.88;;
74908;SDS011;63468;52.058;4.824;2023-02-11T04:56:46;29.33;;;10.23;;
74908;SDS011;63468;52.058;4.824;2023-02-11T04:59:12;36.30;;;12.38;;
74908;SDS011;63468;52.058;4.824;2023-02-11T05:01:37;27.40;;;10.77;;
74908;SDS011;63468;52.058;4.824;2023-02-11T05:04:03;39.00;;;10.68;;
74908;SDS011;63468;52.058;4.824;2023-02-11T05:06:29;28.40;;;11.35;;
74908;SDS011;63468;52.058;4.824;2023-02-11T05:08:55;31.55;;;11.23;;
74908;SDS011;63468;52.058;4.824;2023-02-11T05:11:21;29.98;;;11.50;;
74908;SDS011;63468;52.058;4.824;2023-02-11T05:13:47;29.85;;;11.38;;
74908;SDS011;63468;52.058;4.824;2023-02-11T05:16:13;32.90;;;11.73;;
74908;SDS011;63468;52.058;4.824;2023-02-11T05:18:40;32.53;;;9.55;;
74908;SDS011;63468;52.058;4.824;2023-02-11T05:21:13;33.70;;;11.77;;
74908;SDS011;63468;52.058;4.824;2023-02-11T05:23:40;24.73;;;10.80;;
74908;SDS011;63468;52.058;4.824;2023-02-11T05:26:05;36.05;;;12.52;;
74908;SDS011;63468;52.058;4.824;2023-02-11T05:28:31;35.92;;;11.55;;
74908;SDS011;63468;52.058;4.824;2023-02-11T05:30:56;38.40;;;11.82;;
74908;SDS011;63468;52.058;4.824;2023-02-11T05:33:22;28.25;;;10.88;;
74908;SDS011;63468;52.058;4.824;2023-02-11T05:35:47;29.48;;;10.77;;
74908;SDS011;63468;52.058;4.824;2023-02-11T05:38:12;40.90;;;12.95;;
74908;SDS011;63468;52.058;4.824;2023-02-11T05:40:38;31.92;;;12.25;;
74908;SDS011;63468;52.058;4.824;2023-02-11T05:43:03;36.20;;;12.82;;
74908;SDS011;63468;52.058;4.824;2023-02-11T05:45:29;47.28;;;12.45;;
74908;SDS011;63468;52.058;4.824;2023-02-11T05:47:54;40.55;;;13.25;;
74908;SDS011;63468;52.058;4.824;2023-02-11T05:50:19;41.65;;;13.98;;
74908;SDS011;63468;52.058;4.824;2023-02-11T05:52:45;36.60;;;14.13;;
74908;SDS011;63468;52.058;4.824;2023-02-11T05:55:10;37.75;;;14.75;;
74908;SDS011;63468;52.058;4.824;2023-02-11T05:57:35;33.90;;;14.43;;
74908;SDS011;63468;52.058;4.824;2023-02-11T06:00:01;47.25;;;17.52;;
74908;SDS011;63468;52.058;4.824;2023-02-11T06:02:28;41.17;;;15.45;;
74908;SDS011;63468;52.058;4.824;2023-02-11T06:04:53;40.17;;;14.77;;
74908;SDS011;63468;52.058;4.824;2023-02-11T06:07:19;34.53;;;15.00;;
74908;SDS011;63468;52.058;4.824;2023-02-11T06:09:44;42.22;;;15.88;;
74908;SDS011;63468;52.058;4.824;2023-02-11T06:12:09;43.58;;;14.40;;
74908;SDS011;63468;52.058;4.824;2023-02-11T06:14:35;39.08;;;15.25;;
74908;SDS011;63468;52.058;4.824;2023-02-11T06:17:00;38.17;;;15.38;;
74908;SDS011;63468;52.058;4.824;2023-02-11T06:19:25;44.95;;;13.80;;
74908;SDS011;63468;52.058;4.824;2023-02-11T06:21:51;31.05;;;14.23;;
74908;SDS011;63468;52.058;4.824;2023-02-11T06:24:16;35.63;;;14.10;;
74908;SDS011;63468;52.058;4.824;2023-02-11T06:26:41;40.63;;;14.02;;
74908;SDS011;63468;52.058;4.824;2023-02-11T06:29:07;31.83;;;14.45;;
74908;SDS011;63468;52.058;4.824;2023-02-11T06:31:32;38.85;;;15.63;;
74908;SDS011;63468;52.058;4.824;2023-02-11T06:33:57;40.67;;;16.15;;
74908;SDS011;63468;52.058;4.824;2023-02-11T06:36:23;40.08;;;16.08;;
74908;SDS011;63468;52.058;4.824;2023-02-11T06:38:49;39.97;;;18.10;;
74908;SDS011;63468;52.058;4.824;2023-02-11T06:41:15;47.38;;;16.00;;
74908;SDS011;63468;52.058;4.824;2023-02-11T06:43:43;36.60;;;14.85;;
74908;SDS011;63468;52.058;4.824;2023-02-11T06:46:09;45.33;;;18.80;;
74908;SDS011;63468;52.058;4.824;2023-02-11T06:48:35;35.50;;;16.75;;
74908;SDS011;63468;52.058;4.824;2023-02-11T06:51:01;38.20;;;16.80;;
74908;SDS011;63468;52.058;4.824;2023-02-11T06:53:30;45.42;;;17.42;;
74908;SDS011;63468;52.058;4.824;2023-02-11T06:56:00;45.05;;;16.23;;
74908;SDS011;63468;52.058;4.824;2023-02-11T06:58:27;40.28;;;17.23;;
74908;SDS011;63468;52.058;4.824;2023-02-11T07:00:52;34.17;;;15.60;;
74908;SDS011;63468;52.058;4.824;2023-02-11T07:03:17;37.55;;;16.52;;
74908;SDS011;63468;52.058;4.824;2023-02-11T07:05:43;35.65;;;15.93;;
74908;SDS011;63468;52.058;4.824;2023-02-11T07:08:08;42.70;;;16.48;;
74908;SDS011;63468;52.058;4.824;2023-02-11T07:10:33;45.60;;;16.95;;
74908;SDS011;63468;52.058;4.824;2023-02-11T07:12:59;42.97;;;17.67;;
74908;SDS011;63468;52.058;4.824;2023-02-11T07:15:24;37.30;;;15.48;;
74908;SDS011;63468;52.058;4.824;2023-02-11T07:17:49;45.63;;;17.02;;
74908;SDS011;63468;52.058;4.824;2023-02-11T07:20:15;48.13;;;17.20;;
74908;SDS011;63468;52.058;4.824;2023-02-11T07:22:40;44.17;;;16.33;;
74908;SDS011;63468;52.058;4.824;2023-02-11T07:25:05;47.90;;;16.13;;
74908;SDS011;63468;52.058;4.824;2023-02-11T07:27:31;40.67;;;16.98;;
74908;SDS011;63468;52.058;4.824;2023-02-11T07:29:56;44.03;;;19.17;;
74908;SDS011;63468;52.058;4.824;2023-02-11T07:32:22;44.58;;;19.15;;
74908;SDS011;63468;52.058;4.824;2023-02-11T07:34:47;43.67;;;17.83;;
74908;SDS011;63468;52.058;4.824;2023-02-11T07:37:13;45.08;;;19.33;;
74908;SDS011;63468;52.058;4.824;2023-02-11T07:39:38;46.35;;;17.70;;
74908;SDS011;63468;52.058;4.824;2023-02-11T07:42:04;42.28;;;17.95;;
74908;SDS011;63468;52.058;4.824;2023-02-11T07:44:29;48.45;;;19.33;;
74908;SDS011;63468;52.058;4.824;2023-02-11T07:46:57;46.28;;;18.27;;
74908;SDS011;63468;52.058;4.824;2023-02-11T07:49:22;43.03;;;19.08;;
74908;SDS011;63468;52.058;4.824;2023-02-11T07:51:47;45.08;;;18.90;;
74908;SDS011;63468;52.058;4.824;2023-02-11T07:54:15;53.38;;;20.38;;
74908;SDS011;63468;52.058;4.824;2023-02-11T07:56:40;54.10;;;19.80;;
74908;SDS011;63468;52.058;4.824;2023-02-11T07:59:05;43.97;;;19.35;;
74908;SDS011;63468;52.058;4.824;2023-02-11T08:01:31;37.90;;;18.35;;
74908;SDS011;63468;52.058;4.824;2023-02-11T08:03:57;43.83;;;17.77;;
74908;SDS011;63468;52.058;4.824;2023-02-11T08:06:24;41.15;;;18.90;;
74908;SDS011;63468;52.058;4.824;2023-02-11T08:08:51;47.88;;;21.10;;
74908;SDS011;63468;52.058;4.824;2023-02-11T08:11:18;42.58;;;19.20;;
74908;SDS011;63468;52.058;4.824;2023-02-11T08:13:44;50.30;;;19.52;;
74908;SDS011;63468;52.058;4.824;2023-02-11T08:16:16;50.72;;;22.85;;
74908;SDS011;63468;52.058;4.824;2023-02-11T08:18:49;43.83;;;19.83;;
74908;SDS011;63468;52.058;4.824;2023-02-11T08:21:15;55.05;;;20.48;;
74908;SDS011;63468;52.058;4.824;2023-02-11T08:23:41;56.20;;;20.02;;
74908;SDS011;63468;52.058;4.824;2023-02-11T08:26:09;50.63;;;21.50;;
74908;SDS011;63468;52.058;4.824;2023-02-11T08:28:37;47.65;;;19.40;;
74908;SDS011;63468;52.058;4.824;2023-02-11T08:31:04;49.70;;;21.15;;
74908;SDS011;63468;52.058;4.824;2023-02-11T08:33:37;42.97;;;21.08;;
74908;SDS011;63468;52.058;4.824;2023-02-11T08:36:08;44.13;;;19.58;;
74908;SDS011;63468;52.058;4.824;2023-02-11T08:38:34;50.85;;;20.23;;
74908;SDS011;63468;52.058;4.824;2023-02-11T08:40:59;38.60;;;19.20;;
74908;SDS011;63468;52.058;4.824;2023-02-11T08:43:25;45.15;;;21.23;;
74908;SDS011;63468;52.058;4.824;2023-02-11T08:45:50;47.47;;;21.52;;
74908;SDS011;63468;52.058;4.824;2023-02-11T08:48:15;40.03;;;19.52;;
74908;SDS011;63468;52.058;4.824;2023-02-11T08:50:41;42.13;;;20.63;;
74908;SDS011;63468;52.058;4.824;2023-02-11T08:53:06;44.70;;;19.88;;
74908;SDS011;63468;52.058;4.824;2023-02-11T08:55:31;51.03;;;20.20;;
74908;SDS011;63468;52.058;4.824;2023-02-11T08:57:57;46.30;;;19.75;;
74908;SDS011;63468;52.058;4.824;2023-02-11T09:00:22;45.15;;;19.63;;
74908;SDS011;63468;52.058;4.824;2023-02-11T09:02:48;41.70;;;19.08;;
74908;SDS011;63468;52.058;4.824;2023-02-11T09:05:13;47.92;;;19.33;;
74908;SDS011;63468;52.058;4.824;2023-02-11T09:07:38;42.67;;;20.95;;
74908;SDS011;63468;52.058;4.824;2023-02-11T09:10:04;45.28;;;20.67;;
74908;SDS011;63468;52.058;4.824;2023-02-11T09:12:30;46.42;;;20.50;;
74908;SDS011;63468;52.058;4.824;2023-02-11T09:14:55;45.20;;;20.17;;
74908;SDS011;63468;52.058;4.824;2023-02-11T09:17:21;41.95;;;20.63;;
74908;SDS011;63468;52.058;4.824;2023-02-11T09:19:46;45.60;;;21.77;;
74908;SDS011;63468;52.058;4.824;2023-02-11T09:22:11;41.25;;;20.60;;
74908;SDS011;63468;52.058;4.824;2023-02-11T09:24:37;43.17;;;23.73;;
74908;SDS011;63468;52.058;4.824;2023-02-11T09:27:02;42.70;;;21.33;;
74908;SDS011;63468;52.058;4.824;2023-02-11T09:29:27;51.25;;;22.02;;
74908;SDS011;63468;52.058;4.824;2023-02-11T09:31:53;45.92;;;20.58;;
74908;SDS011;63468;52.058;4.824;2023-02-11T09:34:18;36.03;;;19.52;;
74908;SDS011;63468;52.058;4.824;2023-02-11T09:36:43;41.58;;;20.02;;
74908;SDS011;63468;52.058;4.824;2023-02-11T09:39:13;43.15;;;20.67;;
74908;SDS011;63468;52.058;4.824;2023-02-11T09:44:24;47.53;;;20.58;;
74908;SDS011;63468;52.058;4.824;2023-02-11T09:47:01;40.50;;;19.80;;
74908;SDS011;63468;52.058;4.824;2023-02-11T09:49:30;36.75;;;19.73;;
74908;SDS011;63468;52.058;4.824;2023-02-11T09:52:02;51.28;;;20.17;;
74908;SDS011;63468;52.058;4.824;2023-02-11T09:56:58;36.20;;;18.85;;
74908;SDS011;63468;52.058;4.824;2023-02-11T09:59:23;39.63;;;19.65;;
74908;SDS011;63468;52.058;4.824;2023-02-11T10:01:49;43.70;;;20.40;;
74908;SDS011;63468;52.058;4.824;2023-02-11T10:06:49;36.65;;;19.83;;
74908;SDS011;63468;52.058;4.824;2023-02-11T10:14:57;35.90;;;18.05;;
74908;SDS011;63468;52.058;4.824;2023-02-11T10:20:30;38.60;;;18.17;;
74908;SDS011;63468;52.058;4.824;2023-02-11T10:22:59;31.08;;;17.27;;
74908;SDS011;63468;52.058;4.824;2023-02-11T10:25:29;30.60;;;17.85;;
74908;SDS011;63468;52.058;4.824;2023-02-11T10:27:59;30.45;;;17.80;;
74908;SDS011;63468;52.058;4.824;2023-02-11T10:30:30;33.33;;;18.80;;
74908;SDS011;63468;52.058;4.824;2023-02-11T10:32:59;29.23;;;17.75;;
74908;SDS011;63468;52.058;4.824;2023-02-11T10:35:28;28.88;;;18.58;;
74908;SDS011;63468;52.058;4.824;2023-02-11T10:37:53;28.83;;;17.73;;
74908;SDS011;63468;52.058;4.824;2023-02-11T10:40:23;33.92;;;17.63;;
74908;SDS011;63468;52.058;4.824;2023-02-11T10:42:53;23.85;;;17.75;;
74908;SDS011;63468;52.058;4.824;2023-02-11T10:45:35;24.70;;;14.95;;
74908;SDS011;63468;52.058;4.824;2023-02-11T10:48:06;27.30;;;15.07;;
74908;SDS011;63468;52.058;4.824;2023-02-11T10:51:15;25.65;;;14.15;;
74908;SDS011;63468;52.058;4.824;2023-02-11T10:54:09;26.50;;;13.38;;
74908;SDS011;63468;52.058;4.824;2023-02-11T10:56:44;17.83;;;11.48;;
74908;SDS011;63468;52.058;4.824;2023-02-11T11:01:56;24.23;;;13.88;;
74908;SDS011;63468;52.058;4.824;2023-02-11T11:06:53;22.30;;;11.05;;
74908;SDS011;63468;52.058;4.824;2023-02-11T11:09:28;19.50;;;12.07;;
74908;SDS011;63468;52.058;4.824;2023-02-11T11:11:54;23.08;;;12.63;;
74908;SDS011;63468;52.058;4.824;2023-02-11T11:14:20;19.65;;;11.15;;
74908;SDS011;63468;52.058;4.824;2023-02-11T11:16:53;23.35;;;11.25;;
74908;SDS011;63468;52.058;4.824;2023-02-11T11:19:22;19.20;;;10.13;;
74908;SDS011;63468;52.058;4.824;2023-02-11T11:21:52;22.73;;;11.45;;
74908;SDS011;63468;52.058;4.824;2023-02-11T11:26:58;24.35;;;10.45;;
74908;SDS011;63468;52.058;4.824;2023-02-11T11:29:35;19.15;;;10.00;;
74908;SDS011;63468;52.058;4.824;2023-02-11T11:32:10;20.05;;;10.45;;
74908;SDS011;63468;52.058;4.824;2023-02-11T11:34:42;19.70;;;10.48;;
74908;SDS011;63468;52.058;4.824;2023-02-11T11:40:07;19.13;;;9.80;;
74908;SDS011;63468;52.058;4.824;2023-02-11T11:42:35;24.98;;;13.30;;
74908;SDS011;63468;52.058;4.824;2023-02-11T11:45:05;20.15;;;10.23;;
74908;SDS011;63468;52.058;4.824;2023-02-11T11:50:34;16.38;;;9.65;;
74908;SDS011;63468;52.058;4.824;2023-02-11T11:58:23;19.13;;;9.55;;
74908;SDS011;63468;52.058;4.824;2023-02-11T12:17:23;20.33;;;8.45;;
74908;SDS011;63468;52.058;4.824;2023-02-11T12:25:11;19.58;;;8.65;;
74908;SDS011;63468;52.058;4.824;2023-02-11T12:30:27;17.95;;;9.13;;
74908;SDS011;63468;52.058;4.824;2023-02-11T12:41:27;16.35;;;8.50;;
74908;SDS011;63468;52.058;4.824;2023-02-11T12:44:23;19.60;;;9.90;;
74908;SDS011;63468;52.058;4.824;2023-02-11T12:46:56;16.45;;;9.82;;
74908;SDS011;63468;52.058;4.824;2023-02-11T12:49:33;14.98;;;8.90;;
74908;SDS011;63468;52.058;4.824;2023-02-11T12:57:49;17.23;;;9.00;;
74908;SDS011;63468;52.058;4.824;2023-02-11T13:00:19;18.23;;;8.98;;
74908;SDS011;63468;52.058;4.824;2023-02-11T13:05:36;16.80;;;8.55;;
74908;SDS011;63468;52.058;4.824;2023-02-11T13:08:04;21.70;;;8.73;;
74908;SDS011;63468;52.058;4.824;2023-02-11T13:10:39;18.10;;;9.32;;
74908;SDS011;63468;52.058;4.824;2023-02-11T13:13:41;16.70;;;8.48;;
74908;SDS011;63468;52.058;4.824;2023-02-11T13:15:58;13.82;;;7.80;;
74908;SDS011;63468;52.058;4.824;2023-02-11T13:18:51;13.50;;;8.63;;
74908;SDS011;63468;52.058;4.824;2023-02-11T13:21:47;14.20;;;7.70;;
74908;SDS011;63468;52.058;4.824;2023-02-11T13:37:53;17.15;;;8.05;;
74908;SDS011;63468;52.058;4.824;2023-02-11T13:42:50;15.45;;;8.63;;
74908;SDS011;63468;52.058;4.824;2023-02-11T13:48:21;16.45;;;7.93;;
74908;SDS011;63468;52.058;4.824;2023-02-11T13:50:49;15.73;;;7.65;;
74908;SDS011;63468;52.058;4.824;2023-02-11T13:53:17;15.55;;;8.35;;
74908;SDS011;63468;52.058;4.824;2023-02-11T13:55:47;14.52;;;8.00;;
74908;SDS011;63468;52.058;4.824;2023-02-11T13:58:17;15.18;;;7.78;;
74908;SDS011;63468;52.058;4.824;2023-02-11T14:00:51;17.42;;;8.32;;
74908;SDS011;63468;52.058;4.824;2023-02-11T14:03:21;16.20;;;8.57;;
74908;SDS011;63468;52.058;4.824;2023-02-11T14:11:51;17.98;;;8.82;;
74908;SDS011;63468;52.058;4.824;2023-02-11T14:14:26;19.08;;;8.35;;
74908;SDS011;63468;52.058;4.824;2023-02-11T14:19:42;19.45;;;8.25;;
74908;SDS011;63468;52.058;4.824;2023-02-11T14:27:09;14.40;;;8.25;;
74908;SDS011;63468;52.058;4.824;2023-02-11T14:35:11;21.60;;;8.77;;
74908;SDS011;63468;52.058;4.824;2023-02-11T14:37:51;15.60;;;7.57;;
74908;SDS011;63468;52.058;4.824;2023-02-11T14:40:27;16.25;;;7.47;;
74908;SDS011;63468;52.058;4.824;2023-02-11T14:42:55;15.50;;;7.60;;
74908;SDS011;63468;52.058;4.824;2023-02-11T14:45:25;16.35;;;7.70;;
74908;SDS011;63468;52.058;4.824;2023-02-11T14:48:07;15.13;;;7.80;;
74908;SDS011;63468;52.058;4.824;2023-02-11T14:50:47;21.08;;;8.80;;
74908;SDS011;63468;52.058;4.824;2023-02-11T14:53:16;14.98;;;6.88;;
74908;SDS011;63468;52.058;4.824;2023-02-11T14:55:44;13.70;;;7.35;;
74908;SDS011;63468;52.058;4.824;2023-02-11T14:58:13;15.38;;;7.75;;
74908;SDS011;63468;52.058;4.824;2023-02-11T15:03:37;17.65;;;8.05;;
74908;SDS011;63468;52.058;4.824;2023-02-11T15:06:15;16.45;;;7.65;;
74908;SDS011;63468;52.058;4.824;2023-02-11T15:08:46;13.30;;;7.53;;
74908;SDS011;63468;52.058;4.824;2023-02-11T15:11:14;20.38;;;9.15;;
74908;SDS011;63468;52.058;4.824;2023-02-11T15:13:41;36.08;;;16.73;;
74908;SDS011;63468;52.058;4.824;2023-02-11T15:16:13;31.13;;;15.73;;
74908;SDS011;63468;52.058;4.824;2023-02-11T15:18:43;55.88;;;29.85;;
74908;SDS011;63468;52.058;4.824;2023-02-11T15:21:12;22.63;;;13.13;;
74908;SDS011;63468;52.058;4.824;2023-02-11T15:24:01;26.98;;;14.32;;
74908;SDS011;63468;52.058;4.824;2023-02-11T15:26:42;21.67;;;10.88;;
74908;SDS011;63468;52.058;4.824;2023-02-11T15:29:16;19.42;;;9.63;;
74908;SDS011;63468;52.058;4.824;2023-02-11T15:31:42;49.55;;;23.70;;
74908;SDS011;63468;52.058;4.824;2023-02-11T15:34:07;17.35;;;9.57;;
74908;SDS011;63468;52.058;4.824;2023-02-11T15:36:33;24.42;;;13.00;;
74908;SDS011;63468;52.058;4.824;2023-02-11T15:39:28;23.83;;;9.48;;
74908;SDS011;63468;52.058;4.824;2023-02-11T15:41:55;15.98;;;7.60;;
74908;SDS011;63468;52.058;4.824;2023-02-11T15:44:31;26.77;;;10.68;;
74908;SDS011;63468;52.058;4.824;2023-02-11T15:46:57;23.02;;;9.77;;
74908;SDS011;63468;52.058;4.824;2023-02-11T15:49:23;28.73;;;12.32;;
74908;SDS011;63468;52.058;4.824;2023-02-11T15:51:49;21.88;;;11.07;;
74908;SDS011;63468;52.058;4.824;2023-02-11T15:54:16;29.63;;;13.88;;
74908;SDS011;63468;52.058;4.824;2023-02-11T15:56:44;17.65;;;7.90;;
74908;SDS011;63468;52.058;4.824;2023-02-11T15:59:18;28.83;;;12.82;;
74908;SDS011;63468;52.058;4.824;2023-02-11T16:01:50;17.13;;;9.32;;
74908;SDS011;63468;52.058;4.824;2023-02-11T16:04:16;19.98;;;10.02;;
74908;SDS011;63468;52.058;4.824;2023-02-11T16:06:43;17.23;;;9.43;;
74908;SDS011;63468;52.058;4.824;2023-02-11T16:14:20;21.80;;;8.85;;
74908;SDS011;63468;52.058;4.824;2023-02-11T16:16:50;21.08;;;9.80;;
74908;SDS011;63468;52.058;4.824;2023-02-11T16:19:24;20.85;;;8.50;;
74908;SDS011;63468;52.058;4.824;2023-02-11T16:21:50;16.77;;;7.30;;
74908;SDS011;63468;52.058;4.824;2023-02-11T16:24:17;16.52;;;8.05;;
74908;SDS011;63468;52.058;4.824;2023-02-11T16:26:49;15.68;;;7.85;;
74908;SDS011;63468;52.058;4.824;2023-02-11T16:29:18;19.95;;;9.02;;
74908;SDS011;63468;52.058;4.824;2023-02-11T16:31:48;20.90;;;9.38;;
74908;SDS011;63468;52.058;4.824;2023-02-11T16:34:22;20.60;;;8.82;;
74908;SDS011;63468;52.058;4.824;2023-02-11T16:36:48;27.33;;;12.43;;
74908;SDS011;63468;52.058;4.824;2023-02-11T16:39:15;70.00;;;26.60;;
74908;SDS011;63468;52.058;4.824;2023-02-11T16:41:40;43.08;;;17.95;;
74908;SDS011;63468;52.058;4.824;2023-02-11T16:44:06;30.38;;;12.30;;
74908;SDS011;63468;52.058;4.824;2023-02-11T16:46:31;18.88;;;8.90;;
74908;SDS011;63468;52.058;4.824;2023-02-11T16:48:57;18.40;;;8.23;;
74908;SDS011;63468;52.058;4.824;2023-02-11T16:51:31;16.50;;;8.07;;
74908;SDS011;63468;52.058;4.824;2023-02-11T16:53:56;15.07;;;8.45;;
74908;SDS011;63468;52.058;4.824;2023-02-11T16:56:21;40.42;;;16.27;;
74908;SDS011;63468;52.058;4.824;2023-02-11T16:58:47;31.33;;;13.68;;
74908;SDS011;63468;52.058;4.824;2023-02-11T17:01:12;29.83;;;13.80;;
74908;SDS011;63468;52.058;4.824;2023-02-11T17:03:38;38.72;;;17.77;;
74908;SDS011;63468;52.058;4.824;2023-02-11T17:06:05;24.13;;;10.73;;
74908;SDS011;63468;52.058;4.824;2023-02-11T17:08:32;36.85;;;18.42;;
74908;SDS011;63468;52.058;4.824;2023-02-11T17:10:57;49.70;;;21.10;;
74908;SDS011;63468;52.058;4.824;2023-02-11T17:13:23;25.45;;;11.27;;